createdAt,value
2018-09-12T00:00:07.597Z,15.80
2018-09-12T00:02:41.863Z,15.80
2018-09-12T00:05:16.884Z,15.80
2018-09-12T00:07:51.192Z,15.80
2018-09-12T00:10:25.906Z,15.80
2018-09-12T00:13:00.342Z,15.70
2018-09-12T00:15:34.976Z,15.70
2018-09-12T00:18:09.733Z,15.70
2018-09-12T00:20:44.463Z,15.60
2018-09-12T00:23:19.465Z,15.60
2018-09-12T00:25:53.893Z,15.60
2018-09-12T00:28:28.601Z,15.60
2018-09-12T00:31:03.380Z,15.50
2018-09-12T00:33:38.025Z,15.50
2018-09-12T00:36:12.984Z,15.50
2018-09-12T00:38:47.353Z,15.40
2018-09-12T00:41:22.108Z,15.40
2018-09-12T00:43:56.852Z,15.40
2018-09-12T00:46:31.540Z,15.30
2018-09-12T00:49:06.252Z,15.30
2018-09-12T00:51:41.059Z,15.30
2018-09-12T00:54:16.056Z,15.30
2018-09-12T00:56:50.388Z,15.30
2018-09-12T00:59:25.480Z,15.20
2018-09-12T01:01:59.992Z,15.20
2018-09-12T01:04:34.578Z,15.20
2018-09-12T01:07:10.144Z,15.20
2018-09-12T01:09:44.370Z,15.10
2018-09-12T01:12:19.137Z,15.10
2018-09-12T01:14:53.522Z,15.10
2018-09-12T01:17:28.160Z,15.10
2018-09-12T01:20:02.996Z,15.00
2018-09-12T01:22:37.778Z,15.00
2018-09-12T01:25:12.302Z,15.00
2018-09-12T01:27:51.436Z,15.00
2018-09-12T01:30:25.985Z,15.00
2018-09-12T01:33:00.628Z,14.90
2018-09-12T01:35:35.345Z,14.90
2018-09-12T01:38:09.968Z,14.90
2018-09-12T01:40:44.630Z,14.90
2018-09-12T01:43:19.284Z,14.80
2018-09-12T01:45:53.748Z,14.80
2018-09-12T01:48:28.557Z,14.80
2018-09-12T01:51:03.501Z,14.80
2018-09-12T01:53:37.972Z,14.80
2018-09-12T01:56:12.950Z,14.80
2018-09-12T01:58:47.257Z,14.70
2018-09-12T02:01:21.977Z,14.70
2018-09-12T02:04:00.444Z,14.70
2018-09-12T02:06:34.640Z,14.60
2018-09-12T02:09:11.653Z,14.70
2018-09-12T02:11:46.205Z,14.70
2018-09-12T02:14:20.961Z,14.60
2018-09-12T02:16:55.840Z,14.60
2018-09-12T02:19:30.453Z,14.60
2018-09-12T02:22:04.684Z,14.60
2018-09-12T02:24:39.697Z,14.60
2018-09-12T02:27:14.038Z,14.50
2018-09-12T02:29:48.812Z,14.50
2018-09-12T02:32:23.612Z,14.50
2018-09-12T02:34:58.221Z,14.50
2018-09-12T02:37:32.856Z,14.50
2018-09-12T02:40:08.067Z,14.50
2018-09-12T02:42:42.156Z,14.40
2018-09-12T02:45:16.968Z,14.40
2018-09-12T02:47:52.067Z,14.40
2018-09-12T02:50:26.428Z,14.40
2018-09-12T02:53:01.321Z,14.40
2018-09-12T02:55:35.996Z,14.40
2018-09-12T02:58:10.709Z,14.30
2018-09-12T03:00:45.384Z,14.30
2018-09-12T03:03:20.414Z,14.30
2018-09-12T03:05:54.996Z,14.30
2018-09-12T03:08:29.806Z,14.30
2018-09-12T03:11:04.861Z,14.30
2018-09-12T03:13:39.296Z,14.30
2018-09-12T03:16:14.060Z,14.30
2018-09-12T03:18:49.320Z,14.30
2018-09-12T03:21:23.516Z,14.20
2018-09-12T03:23:58.331Z,14.20
2018-09-12T03:26:33.057Z,14.20
2018-09-12T03:29:08.108Z,14.20
2018-09-12T03:31:42.853Z,14.20
2018-09-12T03:34:17.653Z,14.20
2018-09-12T03:36:52.292Z,14.20
2018-09-12T03:39:26.768Z,14.20
2018-09-12T03:42:01.217Z,14.20
2018-09-12T03:44:37.900Z,14.10
2018-09-12T03:47:13.508Z,14.10
2018-09-12T03:49:48.107Z,14.10
2018-09-12T03:52:22.765Z,14.10
2018-09-12T03:54:57.439Z,14.10
2018-09-12T03:57:32.150Z,14.10
2018-09-12T04:00:07.344Z,14.10
2018-09-12T04:02:41.688Z,14.10
2018-09-12T04:05:16.352Z,14.10
2018-09-12T04:07:51.184Z,14.10
2018-09-12T04:10:25.834Z,14.10
2018-09-12T04:13:00.499Z,14.10
2018-09-12T04:15:35.122Z,14.00
2018-09-12T04:18:09.756Z,14.00
2018-09-12T04:20:44.440Z,14.00
2018-09-12T04:23:20.562Z,14.00
2018-09-12T04:25:55.007Z,13.90
2018-09-12T04:28:30.137Z,13.90
2018-09-12T04:31:04.381Z,13.90
2018-09-12T04:33:39.301Z,13.90
2018-09-12T04:36:14.080Z,13.90
2018-09-12T04:38:48.712Z,13.90
2018-09-12T04:41:23.699Z,13.90
2018-09-12T04:43:58.754Z,13.90
2018-09-12T04:46:33.147Z,13.80
2018-09-12T04:49:07.763Z,13.80
2018-09-12T04:51:42.438Z,13.80
2018-09-12T04:54:17.086Z,13.80
2018-09-12T04:56:51.980Z,13.80
2018-09-12T04:59:26.717Z,13.80
2018-09-12T05:02:01.246Z,13.80
2018-09-12T05:04:36.831Z,13.80
2018-09-12T05:07:11.464Z,13.80
2018-09-12T05:09:46.202Z,13.80
2018-09-12T05:12:21.063Z,13.80
2018-09-12T05:14:55.693Z,13.80
2018-09-12T05:17:30.391Z,13.80
2018-09-12T05:20:05.536Z,13.80
2018-09-12T05:22:40.057Z,13.80
2018-09-12T05:25:14.743Z,13.90
2018-09-12T05:27:50.083Z,13.90
2018-09-12T05:30:25.124Z,13.90
2018-09-12T05:33:00.650Z,14.10
2018-09-12T05:35:37.148Z,14.20
2018-09-12T05:38:11.502Z,14.40
2018-09-12T05:40:46.283Z,14.50
2018-09-12T05:43:21.528Z,14.60
2018-09-12T05:45:56.877Z,14.70
2018-09-12T05:48:31.365Z,14.80
2018-09-12T05:51:06.537Z,14.90
2018-09-12T05:53:41.352Z,15.00
2018-09-12T05:56:16.141Z,15.20
2018-09-12T05:58:50.532Z,15.40
2018-09-12T06:01:25.123Z,15.60
2018-09-12T06:03:59.876Z,15.80
2018-09-12T06:06:34.709Z,16.10
2018-09-12T06:09:10.123Z,16.20
2018-09-12T06:11:45.175Z,16.50
2018-09-12T06:14:19.791Z,16.80
2018-09-12T06:16:54.445Z,17.20
2018-09-12T06:19:29.026Z,17.80
2018-09-12T06:22:03.612Z,18.40
2018-09-12T06:24:38.198Z,19.10
2018-09-12T06:27:12.952Z,19.80
2018-09-12T06:29:48.029Z,20.40
2018-09-12T06:32:22.284Z,21.00
2018-09-12T06:34:57.106Z,21.60
2018-09-12T06:37:31.724Z,22.10
2018-09-12T06:40:06.747Z,22.50
2018-09-12T06:42:41.180Z,22.90
2018-09-12T06:45:15.902Z,23.30
2018-09-12T06:47:51.300Z,23.60
2018-09-12T06:50:26.352Z,23.80
2018-09-12T06:53:02.006Z,23.90
2018-09-12T06:55:36.683Z,24.00
2018-09-12T06:58:11.272Z,24.00
2018-09-12T07:00:46.163Z,24.00
2018-09-12T07:03:21.035Z,24.10
2018-09-12T07:05:56.464Z,24.10
2018-09-12T07:08:30.559Z,24.10
2018-09-12T07:11:05.308Z,24.20
2018-09-12T07:13:41.031Z,24.20
2018-09-12T07:16:16.063Z,24.20
2018-09-12T07:18:50.776Z,24.30
2018-09-12T07:21:25.480Z,24.30
2018-09-12T07:24:00.165Z,24.40
2018-09-12T07:26:34.711Z,24.50
2018-09-12T07:29:09.468Z,24.50
2018-09-12T07:31:44.092Z,24.60
2018-09-12T07:34:18.961Z,24.70
2018-09-12T07:36:53.207Z,24.80
2018-09-12T07:39:28.096Z,24.80
2018-09-12T07:42:02.549Z,24.90
2018-09-12T07:44:37.178Z,25.10
2018-09-12T07:47:12.905Z,25.20
2018-09-12T07:49:47.982Z,25.30
2018-09-12T07:52:22.800Z,25.40
2018-09-12T07:54:57.372Z,25.50
2018-09-12T07:57:32.366Z,25.60
2018-09-12T08:00:07.210Z,25.70
2018-09-12T08:02:41.416Z,25.80
2018-09-12T08:05:16.107Z,25.90
2018-09-12T08:07:51.868Z,25.90
2018-09-12T08:10:26.404Z,25.90
2018-09-12T08:13:01.127Z,26.00
2018-09-12T08:15:35.845Z,26.10
2018-09-12T08:18:10.189Z,26.10
2018-09-12T08:20:44.626Z,26.20
2018-09-12T08:23:19.232Z,26.30
2018-09-12T08:25:53.794Z,26.40
2018-09-12T08:28:28.796Z,26.50
2018-09-12T08:31:03.460Z,26.60
2018-09-12T08:33:38.300Z,26.70
2018-09-12T08:36:12.910Z,26.80
2018-09-12T08:38:47.719Z,26.90
2018-09-12T08:41:22.621Z,27.10
2018-09-12T08:43:57.178Z,27.20
2018-09-12T08:46:31.870Z,27.30
2018-09-12T08:49:06.557Z,27.50
2018-09-12T08:51:41.616Z,27.60
2018-09-12T08:54:15.720Z,27.60
2018-09-12T08:56:50.440Z,27.70
2018-09-12T08:59:25.588Z,27.80
2018-09-12T09:01:59.718Z,27.90
2018-09-12T09:04:34.782Z,28.10
2018-09-12T09:07:09.673Z,28.20
2018-09-12T09:09:44.241Z,28.30
2018-09-12T09:12:18.866Z,28.50
2018-09-12T09:14:53.504Z,28.60
2018-09-12T09:17:28.177Z,28.70
2018-09-12T09:20:04.119Z,28.90
2018-09-12T09:22:38.864Z,29.00
2018-09-12T09:25:13.458Z,29.10
2018-09-12T09:27:48.158Z,29.20
2018-09-12T09:30:27.071Z,29.30
2018-09-12T09:33:01.314Z,29.40
2018-09-12T09:35:36.160Z,29.60
2018-09-12T09:38:10.718Z,29.70
2018-09-12T09:40:45.291Z,29.80
2018-09-12T09:43:20.025Z,30.00
2018-09-12T09:45:54.544Z,30.10
2018-09-12T09:48:29.198Z,30.30
2018-09-12T09:51:04.309Z,30.50
2018-09-12T09:53:38.697Z,30.80
2018-09-12T09:56:13.432Z,31.00
2018-09-12T09:58:48.461Z,31.20
2018-09-12T10:01:28.430Z,31.50
2018-09-12T10:04:09.223Z,31.70
2018-09-12T10:06:49.925Z,31.90
2018-09-12T10:09:31.120Z,32.10
2018-09-12T10:12:06.113Z,32.10
2018-09-12T10:14:40.344Z,32.10
2018-09-12T10:17:15.296Z,32.10
2018-09-12T10:19:49.849Z,32.20
2018-09-12T10:22:24.688Z,32.30
2018-09-12T10:24:59.209Z,32.40
2018-09-12T10:27:33.714Z,32.30
2018-09-12T10:30:09.248Z,32.20
2018-09-12T10:32:43.294Z,32.10
2018-09-12T10:35:18.065Z,31.80
2018-09-12T10:37:52.939Z,31.60
2018-09-12T10:40:27.717Z,31.40
2018-09-12T10:43:02.591Z,31.30
2018-09-12T10:45:37.696Z,31.10
2018-09-12T10:48:11.885Z,30.90
2018-09-12T10:50:46.613Z,30.80
2018-09-12T10:53:21.314Z,30.60
2018-09-12T10:55:55.873Z,30.50
2018-09-12T10:58:30.502Z,30.40
2018-09-12T11:01:06.028Z,30.20
2018-09-12T11:03:41.226Z,30.10
2018-09-12T11:06:15.717Z,30.00
2018-09-12T11:08:50.588Z,29.80
2018-09-12T11:11:25.262Z,29.70
2018-09-12T11:13:59.894Z,29.60
2018-09-12T11:16:34.793Z,29.50
2018-09-12T11:19:09.345Z,29.40
2018-09-12T11:21:43.835Z,29.30
2018-09-12T11:24:18.709Z,29.30
2018-09-12T11:26:53.870Z,29.20
2018-09-12T11:29:28.158Z,29.10
2018-09-12T11:32:03.181Z,29.00
2018-09-12T11:34:37.733Z,28.90
2018-09-12T11:37:12.445Z,28.80
2018-09-12T11:39:47.291Z,28.80
2018-09-12T11:42:21.945Z,28.60
2018-09-12T11:44:56.833Z,28.60
2018-09-12T11:47:31.492Z,28.50
2018-09-12T11:50:06.484Z,28.50
2018-09-12T11:52:41.309Z,28.50
2018-09-12T11:55:15.889Z,28.50
2018-09-12T11:57:50.361Z,28.40
2018-09-12T12:00:24.937Z,28.40
2018-09-12T12:02:59.669Z,28.40
2018-09-12T12:05:34.581Z,28.30
2018-09-12T12:08:09.041Z,28.30
2018-09-12T12:10:43.704Z,28.20
2018-09-12T12:13:18.553Z,28.20
2018-09-12T12:15:53.055Z,28.20
2018-09-12T12:18:27.759Z,28.20
2018-09-12T12:21:02.491Z,28.10
2018-09-12T12:23:37.214Z,28.10
2018-09-12T12:26:11.868Z,28.00
2018-09-12T12:28:46.788Z,28.00
2018-09-12T12:31:21.417Z,28.00
2018-09-12T12:33:56.495Z,27.90
2018-09-12T12:36:30.944Z,27.90
2018-09-12T12:39:09.745Z,27.90
2018-09-12T12:41:44.538Z,27.90
2018-09-12T12:44:19.359Z,27.80
2018-09-12T12:46:54.584Z,27.80
2018-09-12T12:49:28.896Z,27.70
2018-09-12T12:52:03.931Z,27.80
2018-09-12T12:54:38.509Z,27.70
2018-09-12T12:57:13.729Z,27.70
2018-09-12T12:59:47.812Z,27.70
2018-09-12T13:02:22.632Z,27.70
2018-09-12T13:04:57.329Z,27.60
2018-09-12T13:07:32.157Z,27.60
2018-09-12T13:10:06.689Z,27.60
2018-09-12T13:12:41.295Z,27.60
2018-09-12T13:15:15.988Z,27.60
2018-09-12T13:17:50.748Z,27.50
2018-09-12T13:20:25.035Z,27.50
2018-09-12T13:22:59.816Z,27.40
2018-09-12T13:25:34.629Z,27.40
2018-09-12T13:28:09.352Z,27.30
2018-09-12T13:30:44.151Z,27.30
2018-09-12T13:33:18.859Z,27.30
2018-09-12T13:35:53.577Z,27.20
2018-09-12T13:38:28.271Z,27.20
2018-09-12T13:41:02.949Z,27.20
2018-09-12T13:43:37.676Z,27.10
2018-09-12T13:46:12.275Z,27.10
2018-09-12T13:48:47.160Z,27.10
2018-09-12T13:51:21.804Z,27.00
2018-09-12T13:53:56.437Z,27.00
2018-09-12T13:56:31.766Z,27.00
2018-09-12T13:59:06.020Z,27.00
2018-09-12T14:01:40.768Z,27.00
2018-09-12T14:04:15.508Z,26.90
2018-09-12T14:06:50.676Z,26.90
2018-09-12T14:09:25.162Z,26.90
2018-09-12T14:12:00.161Z,26.90
2018-09-12T14:14:34.930Z,26.80
2018-09-12T14:17:09.695Z,26.80
2018-09-12T14:19:44.526Z,26.80
2018-09-12T14:22:19.141Z,26.80
2018-09-12T14:24:53.767Z,26.80
2018-09-12T14:27:28.574Z,26.80
2018-09-12T14:30:03.010Z,26.80
2018-09-12T14:32:37.616Z,26.80
2018-09-12T14:35:12.367Z,26.80
2018-09-12T14:37:46.903Z,26.80
2018-09-12T14:40:21.560Z,26.70
2018-09-12T14:42:56.395Z,26.70
2018-09-12T14:45:31.535Z,26.70
2018-09-12T14:48:05.697Z,26.70
2018-09-12T14:50:40.581Z,26.70
2018-09-12T14:53:15.245Z,26.70
2018-09-12T14:55:49.942Z,26.70
2018-09-12T14:58:24.781Z,26.70
2018-09-12T15:00:59.835Z,26.60
2018-09-12T15:03:34.226Z,26.60
2018-09-12T15:06:08.989Z,26.60
2018-09-12T15:08:43.682Z,26.60
2018-09-12T15:11:18.312Z,26.60
2018-09-12T15:13:53.004Z,26.50
2018-09-12T15:16:27.685Z,26.50
2018-09-12T15:19:03.321Z,26.50
2018-09-12T15:21:38.209Z,26.40
2018-09-12T15:24:13.788Z,26.40
2018-09-12T15:26:48.132Z,26.30
2018-09-12T15:29:22.608Z,26.20
2018-09-12T15:31:57.329Z,26.20
2018-09-12T15:34:31.975Z,26.20
2018-09-12T15:37:06.650Z,26.20
2018-09-12T15:39:41.382Z,26.10
2018-09-12T15:42:16.090Z,26.10
2018-09-12T15:44:50.836Z,26.10
2018-09-12T15:47:25.412Z,26.10
2018-09-12T15:50:00.217Z,26.00
2018-09-12T15:52:34.948Z,26.00
2018-09-12T15:55:09.619Z,25.90
2018-09-12T15:57:44.436Z,25.90
2018-09-12T16:00:19.380Z,25.90
2018-09-12T16:02:54.254Z,25.80
2018-09-12T16:05:28.593Z,25.80
2018-09-12T16:08:03.406Z,25.80
2018-09-12T16:10:37.784Z,25.70
2018-09-12T16:13:12.697Z,25.70
2018-09-12T16:15:47.474Z,25.60
2018-09-12T16:18:21.950Z,25.60
2018-09-12T16:20:56.791Z,25.50
2018-09-12T16:23:31.635Z,25.40
2018-09-12T16:26:06.463Z,25.40
2018-09-12T16:28:40.811Z,25.20
2018-09-12T16:31:15.509Z,25.20
2018-09-12T16:33:50.269Z,25.10
2018-09-12T16:36:25.917Z,25.00
2018-09-12T16:39:00.999Z,24.90
2018-09-12T16:41:35.640Z,24.80
2018-09-12T16:44:10.311Z,24.80
2018-09-12T16:46:45.212Z,24.70
2018-09-12T16:49:19.255Z,24.60
2018-09-12T16:51:53.744Z,24.50
2018-09-12T16:54:28.430Z,24.50
2018-09-12T16:57:03.084Z,24.40
2018-09-12T16:59:37.564Z,24.30
2018-09-12T17:02:12.261Z,24.30
2018-09-12T17:04:47.792Z,24.20
2018-09-12T17:07:22.436Z,24.20
2018-09-12T17:09:57.335Z,24.10
2018-09-12T17:12:31.738Z,24.00
2018-09-12T17:15:06.700Z,24.00
2018-09-12T17:17:40.961Z,23.90
2018-09-12T17:20:15.613Z,23.80
2018-09-12T17:22:50.277Z,23.70
2018-09-12T17:25:25.090Z,23.70
2018-09-12T17:27:59.562Z,23.80
2018-09-12T17:30:34.422Z,23.90
2018-09-12T17:33:08.948Z,24.10
2018-09-12T17:35:43.552Z,24.20
2018-09-12T17:38:18.616Z,24.40
2018-09-12T17:40:53.092Z,24.50
2018-09-12T17:43:27.805Z,24.70
2018-09-12T17:46:02.589Z,24.70
2018-09-12T17:48:37.347Z,24.80
2018-09-12T17:51:12.170Z,24.70
2018-09-12T17:53:47.015Z,24.60
2018-09-12T17:56:21.732Z,24.40
2018-09-12T17:58:56.769Z,24.20
2018-09-12T18:01:31.063Z,24.00
2018-09-12T18:04:06.141Z,23.70
2018-09-12T18:06:40.649Z,23.50
2018-09-12T18:09:15.337Z,23.30
2018-09-12T18:11:50.214Z,23.10
2018-09-12T18:14:24.849Z,22.90
2018-09-12T18:16:59.668Z,22.70
2018-09-12T18:19:35.124Z,22.60
2018-09-12T18:22:10.472Z,22.40
2018-09-12T18:24:44.844Z,22.20
2018-09-12T18:27:19.420Z,22.10
2018-09-12T18:29:54.405Z,21.90
2018-09-12T18:32:29.129Z,21.80
2018-09-12T18:35:03.763Z,21.70
2018-09-12T18:37:38.459Z,21.60
2018-09-12T18:40:13.259Z,21.50
2018-09-12T18:42:48.067Z,21.40
2018-09-12T18:45:22.536Z,21.30
2018-09-12T18:47:57.268Z,21.30
2018-09-12T18:50:31.881Z,21.20
2018-09-12T18:53:07.000Z,21.10
2018-09-12T18:55:41.413Z,21.10
2018-09-12T18:58:16.235Z,21.00
2018-09-12T19:00:50.959Z,20.90
2018-09-12T19:03:25.561Z,20.80
2018-09-12T19:06:01.096Z,20.80
2018-09-12T19:08:35.778Z,20.70
2018-09-12T19:11:10.376Z,20.70
2018-09-12T19:13:45.028Z,20.60
2018-09-12T19:16:19.542Z,20.60
2018-09-12T19:18:54.166Z,20.50
2018-09-12T19:21:28.768Z,20.50
2018-09-12T19:24:03.355Z,20.40
2018-09-12T19:26:37.866Z,20.40
2018-09-12T19:29:12.713Z,20.30
2018-09-12T19:31:47.719Z,20.30
2018-09-12T19:34:22.590Z,20.20
2018-09-12T19:36:57.423Z,20.20
2018-09-12T19:39:31.995Z,20.10
2018-09-12T19:42:07.218Z,20.10
2018-09-12T19:44:42.665Z,20.10
2018-09-12T19:47:17.601Z,20.00
2018-09-12T19:49:51.821Z,20.00
2018-09-12T19:52:27.310Z,20.00
2018-09-12T19:55:02.881Z,19.90
2018-09-12T19:57:37.818Z,19.90
2018-09-12T20:00:17.955Z,19.80
2018-09-12T20:02:52.807Z,19.80
2018-09-12T20:05:28.041Z,19.70
2018-09-12T20:08:02.617Z,19.70
2018-09-12T20:10:37.274Z,19.70
2018-09-12T20:13:11.941Z,19.60
2018-09-12T20:15:46.844Z,19.60
2018-09-12T20:18:21.336Z,19.50
2018-09-12T20:20:55.886Z,19.50
2018-09-12T20:23:30.544Z,19.50
2018-09-12T20:26:05.439Z,19.40
2018-09-12T20:28:42.225Z,19.40
2018-09-12T20:31:17.837Z,19.40
2018-09-12T20:33:51.932Z,19.40
2018-09-12T20:36:26.683Z,19.40
2018-09-12T20:39:01.204Z,19.30
2018-09-12T20:41:36.269Z,19.30
2018-09-12T20:44:10.884Z,19.30
2018-09-12T20:46:45.741Z,19.30
2018-09-12T20:49:20.459Z,19.30
2018-09-12T20:51:55.298Z,19.30
2018-09-12T20:54:30.760Z,19.20
2018-09-12T20:57:05.164Z,19.20
2018-09-12T20:59:39.760Z,19.20
2018-09-12T21:02:14.583Z,19.20
2018-09-12T21:04:49.665Z,19.20
2018-09-12T21:07:25.012Z,19.20
2018-09-12T21:09:59.702Z,19.30
2018-09-12T21:12:34.728Z,19.20
2018-09-12T21:15:09.500Z,19.20
2018-09-12T21:17:44.384Z,19.20
2018-09-12T21:20:18.948Z,19.20
2018-09-12T21:22:53.878Z,19.20
2018-09-12T21:25:28.488Z,19.20
2018-09-12T21:28:03.497Z,19.20
2018-09-12T21:30:37.848Z,19.20
2018-09-12T21:33:12.898Z,19.30
2018-09-12T21:35:47.696Z,19.20
2018-09-12T21:38:22.184Z,19.20
2018-09-12T21:40:56.831Z,19.20
2018-09-12T21:43:31.593Z,19.20
2018-09-12T21:46:06.973Z,19.20
2018-09-12T21:48:42.056Z,19.20
2018-09-12T21:51:17.032Z,19.10
2018-09-12T21:53:51.537Z,19.10
2018-09-12T21:56:26.144Z,19.10
2018-09-12T21:59:00.904Z,19.00
2018-09-12T22:01:35.647Z,19.00
2018-09-12T22:04:10.484Z,19.00
2018-09-12T22:06:45.178Z,18.90
2018-09-12T22:09:19.927Z,18.90
2018-09-12T22:11:54.635Z,18.80
2018-09-12T22:14:29.366Z,18.80
2018-09-12T22:17:04.109Z,18.70
2018-09-12T22:19:39.089Z,18.70
2018-09-12T22:22:13.482Z,18.70
2018-09-12T22:24:48.232Z,18.60
2018-09-12T22:27:22.814Z,18.60
2018-09-12T22:29:57.645Z,18.50
2018-09-12T22:32:32.383Z,18.50
2018-09-12T22:35:07.357Z,18.50
2018-09-12T22:37:41.972Z,18.50
2018-09-12T22:40:16.777Z,18.40
2018-09-12T22:42:51.460Z,18.40
2018-09-12T22:45:26.148Z,18.30
2018-09-12T22:48:01.100Z,18.30
2018-09-12T22:50:36.159Z,18.30
2018-09-12T22:53:11.023Z,18.20
2018-09-12T22:55:45.305Z,18.20
2018-09-12T22:58:20.055Z,18.10
2018-09-12T23:00:54.784Z,18.10
2018-09-12T23:03:29.720Z,18.10
2018-09-12T23:06:04.392Z,18.00
2018-09-12T23:08:39.130Z,18.00
2018-09-12T23:11:14.966Z,17.90
2018-09-12T23:13:49.776Z,17.90
2018-09-12T23:16:24.240Z,17.90
2018-09-12T23:18:59.364Z,17.80
2018-09-12T23:21:33.958Z,17.80
2018-09-12T23:24:09.329Z,17.80
2018-09-12T23:26:43.505Z,17.80
2018-09-12T23:29:18.165Z,17.80
2018-09-12T23:31:52.855Z,17.80
2018-09-12T23:34:27.892Z,17.80
2018-09-12T23:37:02.943Z,17.80
2018-09-12T23:39:37.371Z,17.70
2018-09-12T23:42:11.959Z,17.70
2018-09-12T23:44:46.982Z,17.60
2018-09-12T23:47:21.618Z,17.60
2018-09-12T23:49:56.166Z,17.50
2018-09-12T23:52:31.231Z,17.50
2018-09-12T23:55:05.577Z,17.50
2018-09-12T23:57:40.416Z,17.50
